sensor_id;sensor_type;location;lat;lon;timestamp;P1;durP1;ratioP1;P2;durP2;ratioP2
14125;SDS011;7141;49.484;11.242;2023-05-20T00:01:13;5.30;;;3.73;;
14125;SDS011;7141;49.484;11.242;2023-05-20T00:03:39;3.97;;;3.50;;
14125;SDS011;7141;49.484;11.242;2023-05-20T00:06:05;5.10;;;3.80;;
14125;SDS011;7141;49.484;11.242;2023-05-20T00:08:31;4.90;;;3.63;;
14125;SDS011;7141;49.484;11.242;2023-05-20T00:10:57;4.13;;;3.67;;
14125;SDS011;7141;49.484;11.242;2023-05-20T00:13:23;4.90;;;3.83;;
14125;SDS011;7141;49.484;11.242;2023-05-20T00:15:50;6.53;;;3.97;;
14125;SDS011;7141;49.484;11.242;2023-05-20T00:18:17;5.67;;;3.90;;
14125;SDS011;7141;49.484;11.242;2023-05-20T00:20:43;5.17;;;3.90;;
14125;SDS011;7141;49.484;11.242;2023-05-20T00:23:09;5.27;;;3.60;;
14125;SDS011;7141;49.484;11.242;2023-05-20T00:25:35;6.77;;;4.23;;
14125;SDS011;7141;49.484;11.242;2023-05-20T00:28:01;5.53;;;4.20;;
14125;SDS011;7141;49.484;11.242;2023-05-20T00:30:27;5.10;;;4.10;;
14125;SDS011;7141;49.484;11.242;2023-05-20T00:32:53;4.70;;;3.77;;
14125;SDS011;7141;49.484;11.242;2023-05-20T00:35:19;5.20;;;4.07;;
14125;SDS011;7141;49.484;11.242;2023-05-20T00:37:45;6.10;;;4.30;;
14125;SDS011;7141;49.484;11.242;2023-05-20T00:40:11;6.77;;;4.23;;
14125;SDS011;7141;49.484;11.242;2023-05-20T00:42:37;6.10;;;4.17;;
14125;SDS011;7141;49.484;11.242;2023-05-20T00:45:03;5.70;;;4.07;;
14125;SDS011;7141;49.484;11.242;2023-05-20T00:47:30;5.37;;;4.20;;
14125;SDS011;7141;49.484;11.242;2023-05-20T00:49:57;7.37;;;4.70;;
14125;SDS011;7141;49.484;11.242;2023-05-20T00:52:23;4.97;;;4.27;;
14125;SDS011;7141;49.484;11.242;2023-05-20T00:54:50;5.83;;;4.43;;
14125;SDS011;7141;49.484;11.242;2023-05-20T00:57:16;5.23;;;3.87;;
14125;SDS011;7141;49.484;11.242;2023-05-20T00:59:44;6.40;;;3.97;;
14125;SDS011;7141;49.484;11.242;2023-05-20T01:02:10;5.67;;;4.00;;
14125;SDS011;7141;49.484;11.242;2023-05-20T01:04:36;4.67;;;4.10;;
14125;SDS011;7141;49.484;11.242;2023-05-20T01:07:02;5.43;;;4.30;;
14125;SDS011;7141;49.484;11.242;2023-05-20T01:09:29;4.87;;;4.30;;
14125;SDS011;7141;49.484;11.242;2023-05-20T01:12:03;4.57;;;3.97;;
14125;SDS011;7141;49.484;11.242;2023-05-20T01:14:31;6.60;;;4.40;;
14125;SDS011;7141;49.484;11.242;2023-05-20T01:17:01;5.60;;;4.40;;
14125;SDS011;7141;49.484;11.242;2023-05-20T01:19:44;6.27;;;4.50;;
14125;SDS011;7141;49.484;11.242;2023-05-20T01:22:11;6.33;;;4.67;;
14125;SDS011;7141;49.484;11.242;2023-05-20T01:24:44;5.13;;;4.37;;
14125;SDS011;7141;49.484;11.242;2023-05-20T01:27:12;5.10;;;4.60;;
14125;SDS011;7141;49.484;11.242;2023-05-20T01:29:39;5.40;;;4.43;;
14125;SDS011;7141;49.484;11.242;2023-05-20T01:32:06;5.23;;;4.73;;
14125;SDS011;7141;49.484;11.242;2023-05-20T01:34:34;5.83;;;4.60;;
14125;SDS011;7141;49.484;11.242;2023-05-20T01:37:01;6.10;;;4.53;;
14125;SDS011;7141;49.484;11.242;2023-05-20T01:39:28;5.03;;;4.53;;
14125;SDS011;7141;49.484;11.242;2023-05-20T01:41:54;5.63;;;5.00;;
14125;SDS011;7141;49.484;11.242;2023-05-20T01:44:21;7.27;;;4.60;;
14125;SDS011;7141;49.484;11.242;2023-05-20T01:46:50;5.47;;;4.63;;
14125;SDS011;7141;49.484;11.242;2023-05-20T01:49:16;5.40;;;4.73;;
14125;SDS011;7141;49.484;11.242;2023-05-20T01:51:42;6.97;;;5.43;;
14125;SDS011;7141;49.484;11.242;2023-05-20T01:54:08;5.43;;;4.70;;
14125;SDS011;7141;49.484;11.242;2023-05-20T01:56:34;6.40;;;4.90;;
14125;SDS011;7141;49.484;11.242;2023-05-20T01:59:00;6.50;;;4.43;;
14125;SDS011;7141;49.484;11.242;2023-05-20T02:01:25;6.23;;;4.87;;
14125;SDS011;7141;49.484;11.242;2023-05-20T02:03:51;6.00;;;5.40;;
14125;SDS011;7141;49.484;11.242;2023-05-20T02:06:17;8.90;;;5.00;;
14125;SDS011;7141;49.484;11.242;2023-05-20T02:08:43;6.60;;;4.83;;
14125;SDS011;7141;49.484;11.242;2023-05-20T02:11:09;8.60;;;5.17;;
14125;SDS011;7141;49.484;11.242;2023-05-20T02:13:35;7.43;;;4.63;;
14125;SDS011;7141;49.484;11.242;2023-05-20T02:16:01;6.43;;;5.40;;
14125;SDS011;7141;49.484;11.242;2023-05-20T02:18:27;5.83;;;5.10;;
14125;SDS011;7141;49.484;11.242;2023-05-20T02:20:53;7.07;;;4.83;;
14125;SDS011;7141;49.484;11.242;2023-05-20T02:23:19;6.17;;;4.87;;
14125;SDS011;7141;49.484;11.242;2023-05-20T02:25:45;6.43;;;5.03;;
14125;SDS011;7141;49.484;11.242;2023-05-20T02:28:11;6.47;;;5.23;;
14125;SDS011;7141;49.484;11.242;2023-05-20T02:30:38;7.03;;;5.20;;
14125;SDS011;7141;49.484;11.242;2023-05-20T02:33:04;6.67;;;5.97;;
14125;SDS011;7141;49.484;11.242;2023-05-20T02:35:31;8.43;;;6.07;;
14125;SDS011;7141;49.484;11.242;2023-05-20T02:37:57;6.93;;;5.83;;
14125;SDS011;7141;49.484;11.242;2023-05-20T02:40:23;7.07;;;6.37;;
14125;SDS011;7141;49.484;11.242;2023-05-20T02:42:49;7.27;;;5.57;;
14125;SDS011;7141;49.484;11.242;2023-05-20T02:45:14;7.03;;;5.70;;
14125;SDS011;7141;49.484;11.242;2023-05-20T02:47:40;8.50;;;5.80;;
14125;SDS011;7141;49.484;11.242;2023-05-20T02:50:06;5.87;;;5.17;;
14125;SDS011;7141;49.484;11.242;2023-05-20T02:52:33;7.23;;;5.37;;
14125;SDS011;7141;49.484;11.242;2023-05-20T02:54:59;6.37;;;5.73;;
14125;SDS011;7141;49.484;11.242;2023-05-20T02:57:25;6.50;;;5.80;;
14125;SDS011;7141;49.484;11.242;2023-05-20T02:59:52;7.90;;;6.00;;
14125;SDS011;7141;49.484;11.242;2023-05-20T03:02:18;8.40;;;6.70;;
14125;SDS011;7141;49.484;11.242;2023-05-20T03:04:44;7.27;;;6.47;;
14125;SDS011;7141;49.484;11.242;2023-05-20T03:07:11;7.07;;;6.37;;
14125;SDS011;7141;49.484;11.242;2023-05-20T03:09:38;13.50;;;6.40;;
14125;SDS011;7141;49.484;11.242;2023-05-20T03:12:05;7.00;;;6.30;;
14125;SDS011;7141;49.484;11.242;2023-05-20T03:14:31;7.33;;;5.87;;
14125;SDS011;7141;49.484;11.242;2023-05-20T03:16:57;8.10;;;5.80;;
14125;SDS011;7141;49.484;11.242;2023-05-20T03:19:23;7.70;;;6.13;;
14125;SDS011;7141;49.484;11.242;2023-05-20T03:21:50;6.87;;;6.10;;
14125;SDS011;7141;49.484;11.242;2023-05-20T03:24:15;6.60;;;5.93;;
14125;SDS011;7141;49.484;11.242;2023-05-20T03:26:42;7.73;;;6.20;;
14125;SDS011;7141;49.484;11.242;2023-05-20T03:29:08;6.03;;;5.20;;
14125;SDS011;7141;49.484;11.242;2023-05-20T03:31:34;7.37;;;5.37;;
14125;SDS011;7141;49.484;11.242;2023-05-20T03:34:00;6.53;;;5.73;;
14125;SDS011;7141;49.484;11.242;2023-05-20T03:36:26;7.20;;;5.67;;
14125;SDS011;7141;49.484;11.242;2023-05-20T03:38:52;7.70;;;6.20;;
14125;SDS011;7141;49.484;11.242;2023-05-20T03:41:18;7.33;;;6.07;;
14125;SDS011;7141;49.484;11.242;2023-05-20T03:43:45;8.87;;;6.23;;
14125;SDS011;7141;49.484;11.242;2023-05-20T03:46:11;9.90;;;6.37;;
14125;SDS011;7141;49.484;11.242;2023-05-20T03:48:37;6.73;;;6.03;;
14125;SDS011;7141;49.484;11.242;2023-05-20T03:51:03;6.70;;;5.87;;
14125;SDS011;7141;49.484;11.242;2023-05-20T03:53:29;7.43;;;6.00;;
14125;SDS011;7141;49.484;11.242;2023-05-20T03:55:55;7.53;;;6.03;;
14125;SDS011;7141;49.484;11.242;2023-05-20T03:58:21;7.70;;;6.27;;
14125;SDS011;7141;49.484;11.242;2023-05-20T04:00:47;7.17;;;5.90;;
14125;SDS011;7141;49.484;11.242;2023-05-20T04:03:13;6.93;;;6.23;;
14125;SDS011;7141;49.484;11.242;2023-05-20T04:05:39;9.00;;;6.60;;
14125;SDS011;7141;49.484;11.242;2023-05-20T04:08:05;6.80;;;6.10;;
14125;SDS011;7141;49.484;11.242;2023-05-20T04:10:31;9.50;;;6.47;;
14125;SDS011;7141;49.484;11.242;2023-05-20T04:12:57;7.10;;;6.20;;
14125;SDS011;7141;49.484;11.242;2023-05-20T04:15:23;9.10;;;6.33;;
14125;SDS011;7141;49.484;11.242;2023-05-20T04:17:50;10.33;;;6.57;;
14125;SDS011;7141;49.484;11.242;2023-05-20T04:20:16;8.23;;;6.43;;
14125;SDS011;7141;49.484;11.242;2023-05-20T04:22:43;8.73;;;6.43;;
14125;SDS011;7141;49.484;11.242;2023-05-20T04:25:09;7.53;;;6.30;;
14125;SDS011;7141;49.484;11.242;2023-05-20T04:27:35;9.20;;;7.03;;
14125;SDS011;7141;49.484;11.242;2023-05-20T04:30:02;10.03;;;6.30;;
14125;SDS011;7141;49.484;11.242;2023-05-20T04:32:28;7.10;;;6.30;;
14125;SDS011;7141;49.484;11.242;2023-05-20T04:34:54;9.00;;;6.70;;
14125;SDS011;7141;49.484;11.242;2023-05-20T04:37:21;9.50;;;7.00;;
14125;SDS011;7141;49.484;11.242;2023-05-20T04:39:47;8.90;;;6.80;;
14125;SDS011;7141;49.484;11.242;2023-05-20T04:42:14;8.77;;;6.60;;
14125;SDS011;7141;49.484;11.242;2023-05-20T04:44:42;9.23;;;7.00;;
14125;SDS011;7141;49.484;11.242;2023-05-20T04:47:10;7.37;;;6.50;;
14125;SDS011;7141;49.484;11.242;2023-05-20T04:49:36;8.03;;;6.77;;
14125;SDS011;7141;49.484;11.242;2023-05-20T04:52:02;8.23;;;7.33;;
14125;SDS011;7141;49.484;11.242;2023-05-20T04:54:29;9.10;;;6.50;;
14125;SDS011;7141;49.484;11.242;2023-05-20T04:56:56;7.90;;;7.10;;
14125;SDS011;7141;49.484;11.242;2023-05-20T04:59:22;12.00;;;7.43;;
14125;SDS011;7141;49.484;11.242;2023-05-20T05:01:48;7.77;;;6.97;;
14125;SDS011;7141;49.484;11.242;2023-05-20T05:04:14;11.13;;;7.07;;
14125;SDS011;7141;49.484;11.242;2023-05-20T05:06:40;10.80;;;7.67;;
14125;SDS011;7141;49.484;11.242;2023-05-20T05:09:06;11.30;;;7.77;;
14125;SDS011;7141;49.484;11.242;2023-05-20T05:11:33;9.73;;;7.37;;
14125;SDS011;7141;49.484;11.242;2023-05-20T05:13:59;8.73;;;7.83;;
14125;SDS011;7141;49.484;11.242;2023-05-20T05:16:25;8.33;;;7.43;;
14125;SDS011;7141;49.484;11.242;2023-05-20T05:18:51;8.33;;;7.00;;
14125;SDS011;7141;49.484;11.242;2023-05-20T05:21:17;8.43;;;7.50;;
14125;SDS011;7141;49.484;11.242;2023-05-20T05:23:43;10.03;;;7.73;;
14125;SDS011;7141;49.484;11.242;2023-05-20T05:26:09;9.27;;;7.43;;
14125;SDS011;7141;49.484;11.242;2023-05-20T05:28:35;9.10;;;8.00;;
14125;SDS011;7141;49.484;11.242;2023-05-20T05:31:02;10.00;;;8.13;;
14125;SDS011;7141;49.484;11.242;2023-05-20T05:33:28;11.20;;;8.37;;
14125;SDS011;7141;49.484;11.242;2023-05-20T05:35:54;9.30;;;7.90;;
14125;SDS011;7141;49.484;11.242;2023-05-20T05:38:22;9.40;;;7.47;;
14125;SDS011;7141;49.484;11.242;2023-05-20T05:40:49;10.07;;;7.90;;
14125;SDS011;7141;49.484;11.242;2023-05-20T05:43:15;10.67;;;7.77;;
14125;SDS011;7141;49.484;11.242;2023-05-20T05:45:40;8.27;;;7.07;;
14125;SDS011;7141;49.484;11.242;2023-05-20T05:48:07;10.57;;;8.10;;
14125;SDS011;7141;49.484;11.242;2023-05-20T05:50:33;10.77;;;8.23;;
14125;SDS011;7141;49.484;11.242;2023-05-20T05:52:59;12.47;;;8.20;;
14125;SDS011;7141;49.484;11.242;2023-05-20T05:55:25;9.30;;;8.23;;
14125;SDS011;7141;49.484;11.242;2023-05-20T05:57:51;11.03;;;8.70;;
14125;SDS011;7141;49.484;11.242;2023-05-20T06:00:17;9.23;;;8.23;;
14125;SDS011;7141;49.484;11.242;2023-05-20T06:02:43;9.83;;;8.70;;
14125;SDS011;7141;49.484;11.242;2023-05-20T06:05:09;13.73;;;8.17;;
14125;SDS011;7141;49.484;11.242;2023-05-20T06:07:35;9.63;;;8.33;;
14125;SDS011;7141;49.484;11.242;2023-05-20T06:10:01;9.27;;;7.80;;
14125;SDS011;7141;49.484;11.242;2023-05-20T06:12:27;10.03;;;7.97;;
14125;SDS011;7141;49.484;11.242;2023-05-20T06:14:53;9.70;;;7.83;;
14125;SDS011;7141;49.484;11.242;2023-05-20T06:17:19;9.47;;;8.47;;
14125;SDS011;7141;49.484;11.242;2023-05-20T06:19:45;12.80;;;8.70;;
14125;SDS011;7141;49.484;11.242;2023-05-20T06:22:11;9.70;;;8.13;;
14125;SDS011;7141;49.484;11.242;2023-05-20T06:24:37;9.53;;;8.17;;
14125;SDS011;7141;49.484;11.242;2023-05-20T06:27:03;11.90;;;8.33;;
14125;SDS011;7141;49.484;11.242;2023-05-20T06:29:29;10.33;;;8.27;;
14125;SDS011;7141;49.484;11.242;2023-05-20T06:31:55;9.13;;;8.17;;
14125;SDS011;7141;49.484;11.242;2023-05-20T06:34:21;11.23;;;8.10;;
14125;SDS011;7141;49.484;11.242;2023-05-20T06:36:47;9.63;;;8.33;;
14125;SDS011;7141;49.484;11.242;2023-05-20T06:39:13;11.70;;;7.70;;
14125;SDS011;7141;49.484;11.242;2023-05-20T06:41:39;9.67;;;8.60;;
14125;SDS011;7141;49.484;11.242;2023-05-20T06:44:05;9.47;;;7.90;;
14125;SDS011;7141;49.484;11.242;2023-05-20T06:46:32;9.70;;;7.77;;
14125;SDS011;7141;49.484;11.242;2023-05-20T06:48:58;9.47;;;8.20;;
14125;SDS011;7141;49.484;11.242;2023-05-20T06:51:24;11.47;;;8.73;;
14125;SDS011;7141;49.484;11.242;2023-05-20T06:53:50;11.43;;;8.33;;
14125;SDS011;7141;49.484;11.242;2023-05-20T06:56:16;8.90;;;7.97;;
14125;SDS011;7141;49.484;11.242;2023-05-20T06:58:42;10.17;;;8.43;;
14125;SDS011;7141;49.484;11.242;2023-05-20T07:01:09;10.07;;;8.10;;
14125;SDS011;7141;49.484;11.242;2023-05-20T07:03:35;9.33;;;7.53;;
14125;SDS011;7141;49.484;11.242;2023-05-20T07:06:01;8.73;;;7.77;;
14125;SDS011;7141;49.484;11.242;2023-05-20T07:08:27;9.03;;;8.03;;
14125;SDS011;7141;49.484;11.242;2023-05-20T07:10:54;12.10;;;8.10;;
14125;SDS011;7141;49.484;11.242;2023-05-20T07:13:21;10.93;;;8.83;;
14125;SDS011;7141;49.484;11.242;2023-05-20T07:15:50;10.37;;;8.20;;
14125;SDS011;7141;49.484;11.242;2023-05-20T07:18:16;8.73;;;7.83;;
14125;SDS011;7141;49.484;11.242;2023-05-20T07:20:42;9.47;;;7.13;;
14125;SDS011;7141;49.484;11.242;2023-05-20T07:23:08;7.97;;;7.17;;
14125;SDS011;7141;49.484;11.242;2023-05-20T07:25:34;9.37;;;7.73;;
14125;SDS011;7141;49.484;11.242;2023-05-20T07:28:00;11.07;;;8.23;;
14125;SDS011;7141;49.484;11.242;2023-05-20T07:30:26;9.67;;;7.90;;
14125;SDS011;7141;49.484;11.242;2023-05-20T07:32:52;11.07;;;8.43;;
14125;SDS011;7141;49.484;11.242;2023-05-20T07:35:18;11.23;;;7.27;;
14125;SDS011;7141;49.484;11.242;2023-05-20T07:37:44;10.67;;;8.23;;
14125;SDS011;7141;49.484;11.242;2023-05-20T07:40:10;11.73;;;8.50;;
14125;SDS011;7141;49.484;11.242;2023-05-20T07:42:36;8.67;;;7.80;;
14125;SDS011;7141;49.484;11.242;2023-05-20T07:45:02;11.70;;;7.77;;
14125;SDS011;7141;49.484;11.242;2023-05-20T07:47:30;8.37;;;7.33;;
14125;SDS011;7141;49.484;11.242;2023-05-20T07:49:56;12.70;;;7.87;;
14125;SDS011;7141;49.484;11.242;2023-05-20T07:52:22;9.90;;;8.27;;
14125;SDS011;7141;49.484;11.242;2023-05-20T07:54:48;10.93;;;7.50;;
14125;SDS011;7141;49.484;11.242;2023-05-20T07:57:14;9.80;;;8.57;;
14125;SDS011;7141;49.484;11.242;2023-05-20T07:59:40;7.97;;;7.07;;
14125;SDS011;7141;49.484;11.242;2023-05-20T08:02:06;8.93;;;7.33;;
14125;SDS011;7141;49.484;11.242;2023-05-20T08:04:32;8.60;;;7.20;;
14125;SDS011;7141;49.484;11.242;2023-05-20T08:06:59;7.80;;;7.03;;
14125;SDS011;7141;49.484;11.242;2023-05-20T08:09:25;8.87;;;7.43;;
14125;SDS011;7141;49.484;11.242;2023-05-20T08:11:51;10.40;;;7.53;;
14125;SDS011;7141;49.484;11.242;2023-05-20T08:14:17;9.83;;;7.33;;
14125;SDS011;7141;49.484;11.242;2023-05-20T08:16:43;9.13;;;6.97;;
14125;SDS011;7141;49.484;11.242;2023-05-20T08:19:09;11.70;;;7.33;;
14125;SDS011;7141;49.484;11.242;2023-05-20T08:21:35;8.27;;;6.90;;
14125;SDS011;7141;49.484;11.242;2023-05-20T08:24:01;7.30;;;6.60;;
14125;SDS011;7141;49.484;11.242;2023-05-20T08:26:27;9.47;;;7.13;;
14125;SDS011;7141;49.484;11.242;2023-05-20T08:28:53;8.53;;;7.03;;
14125;SDS011;7141;49.484;11.242;2023-05-20T08:31:19;8.23;;;7.37;;
14125;SDS011;7141;49.484;11.242;2023-05-20T08:33:45;7.73;;;6.83;;
14125;SDS011;7141;49.484;11.242;2023-05-20T08:36:11;8.30;;;6.90;;
14125;SDS011;7141;49.484;11.242;2023-05-20T08:38:37;7.93;;;7.10;;
14125;SDS011;7141;49.484;11.242;2023-05-20T08:41:03;10.50;;;7.27;;
14125;SDS011;7141;49.484;11.242;2023-05-20T08:43:29;7.43;;;6.63;;
14125;SDS011;7141;49.484;11.242;2023-05-20T08:45:57;9.77;;;7.17;;
14125;SDS011;7141;49.484;11.242;2023-05-20T08:48:24;7.70;;;6.90;;
14125;SDS011;7141;49.484;11.242;2023-05-20T08:50:52;9.53;;;6.73;;
14125;SDS011;7141;49.484;11.242;2023-05-20T08:53:19;10.10;;;6.73;;
14125;SDS011;7141;49.484;11.242;2023-05-20T08:55:53;8.67;;;6.80;;
14125;SDS011;7141;49.484;11.242;2023-05-20T08:58:21;7.53;;;6.77;;
14125;SDS011;7141;49.484;11.242;2023-05-20T09:00:48;8.50;;;7.37;;
14125;SDS011;7141;49.484;11.242;2023-05-20T09:03:15;9.53;;;7.10;;
14125;SDS011;7141;49.484;11.242;2023-05-20T09:05:41;7.67;;;6.87;;
14125;SDS011;7141;49.484;11.242;2023-05-20T09:08:07;8.00;;;7.07;;
14125;SDS011;7141;49.484;11.242;2023-05-20T09:10:34;8.63;;;7.17;;
14125;SDS011;7141;49.484;11.242;2023-05-20T09:13:00;7.73;;;6.93;;
14125;SDS011;7141;49.484;11.242;2023-05-20T09:15:28;13.33;;;7.23;;
14125;SDS011;7141;49.484;11.242;2023-05-20T09:17:54;7.93;;;6.90;;
14125;SDS011;7141;49.484;11.242;2023-05-20T09:20:20;7.47;;;6.73;;
14125;SDS011;7141;49.484;11.242;2023-05-20T09:22:49;12.37;;;7.33;;
14125;SDS011;7141;49.484;11.242;2023-05-20T09:25:20;8.37;;;6.80;;
14125;SDS011;7141;49.484;11.242;2023-05-20T09:27:47;7.90;;;6.97;;
14125;SDS011;7141;49.484;11.242;2023-05-20T09:30:13;8.60;;;7.23;;
14125;SDS011;7141;49.484;11.242;2023-05-20T09:32:39;9.60;;;7.53;;
14125;SDS011;7141;49.484;11.242;2023-05-20T09:35:05;7.40;;;6.63;;
14125;SDS011;7141;49.484;11.242;2023-05-20T09:37:32;8.50;;;7.60;;
14125;SDS011;7141;49.484;11.242;2023-05-20T09:40:02;8.47;;;7.37;;
14125;SDS011;7141;49.484;11.242;2023-05-20T09:42:31;9.63;;;7.70;;
14125;SDS011;7141;49.484;11.242;2023-05-20T09:45:00;12.40;;;7.87;;
14125;SDS011;7141;49.484;11.242;2023-05-20T09:47:28;9.83;;;7.43;;
14125;SDS011;7141;49.484;11.242;2023-05-20T09:49:55;8.33;;;7.33;;
14125;SDS011;7141;49.484;11.242;2023-05-20T09:52:21;9.53;;;7.27;;
14125;SDS011;7141;49.484;11.242;2023-05-20T09:54:47;8.53;;;7.30;;
14125;SDS011;7141;49.484;11.242;2023-05-20T09:57:14;8.43;;;7.50;;
14125;SDS011;7141;49.484;11.242;2023-05-20T09:59:40;12.27;;;7.97;;
14125;SDS011;7141;49.484;11.242;2023-05-20T10:02:07;11.37;;;7.33;;
14125;SDS011;7141;49.484;11.242;2023-05-20T10:04:34;10.67;;;7.93;;
14125;SDS011;7141;49.484;11.242;2023-05-20T10:12:38;8.70;;;7.80;;
14125;SDS011;7141;49.484;11.242;2023-05-20T10:15:15;8.60;;;7.27;;
14125;SDS011;7141;49.484;11.242;2023-05-20T10:17:56;8.07;;;7.23;;
14125;SDS011;7141;49.484;11.242;2023-05-20T10:20:26;7.83;;;7.00;;
14125;SDS011;7141;49.484;11.242;2023-05-20T10:22:55;8.07;;;7.17;;
14125;SDS011;7141;49.484;11.242;2023-05-20T10:25:25;8.73;;;7.83;;
14125;SDS011;7141;49.484;11.242;2023-05-20T10:28:02;9.67;;;7.37;;
14125;SDS011;7141;49.484;11.242;2023-05-20T10:30:28;7.80;;;7.03;;
14125;SDS011;7141;49.484;11.242;2023-05-20T10:32:55;9.33;;;6.73;;
14125;SDS011;7141;49.484;11.242;2023-05-20T10:35:24;9.13;;;7.53;;
14125;SDS011;7141;49.484;11.242;2023-05-20T10:37:51;10.27;;;7.70;;
14125;SDS011;7141;49.484;11.242;2023-05-20T10:40:18;7.73;;;6.93;;
14125;SDS011;7141;49.484;11.242;2023-05-20T10:42:44;8.50;;;7.50;;
14125;SDS011;7141;49.484;11.242;2023-05-20T10:45:22;8.43;;;7.53;;
14125;SDS011;7141;49.484;11.242;2023-05-20T10:47:55;8.83;;;7.77;;
14125;SDS011;7141;49.484;11.242;2023-05-20T10:50:25;9.17;;;7.70;;
14125;SDS011;7141;49.484;11.242;2023-05-20T10:52:52;9.10;;;7.67;;
14125;SDS011;7141;49.484;11.242;2023-05-20T10:55:18;9.40;;;7.10;;
14125;SDS011;7141;49.484;11.242;2023-05-20T10:57:46;9.03;;;7.23;;
14125;SDS011;7141;49.484;11.242;2023-05-20T11:00:12;8.87;;;7.97;;
14125;SDS011;7141;49.484;11.242;2023-05-20T11:02:40;10.93;;;8.00;;
14125;SDS011;7141;49.484;11.242;2023-05-20T11:05:08;10.33;;;8.33;;
14125;SDS011;7141;49.484;11.242;2023-05-20T11:07:36;10.20;;;7.97;;
14125;SDS011;7141;49.484;11.242;2023-05-20T11:10:06;10.13;;;7.83;;
14125;SDS011;7141;49.484;11.242;2023-05-20T11:12:32;10.20;;;7.33;;
14125;SDS011;7141;49.484;11.242;2023-05-20T11:14:58;8.90;;;8.00;;
14125;SDS011;7141;49.484;11.242;2023-05-20T11:17:24;9.03;;;7.50;;
14125;SDS011;7141;49.484;11.242;2023-05-20T11:19:50;8.33;;;7.53;;
14125;SDS011;7141;49.484;11.242;2023-05-20T11:22:16;8.37;;;7.37;;
14125;SDS011;7141;49.484;11.242;2023-05-20T11:24:42;12.30;;;8.13;;
14125;SDS011;7141;49.484;11.242;2023-05-20T11:27:08;8.97;;;7.43;;
14125;SDS011;7141;49.484;11.242;2023-05-20T11:29:34;8.27;;;7.37;;
14125;SDS011;7141;49.484;11.242;2023-05-20T11:32:00;9.20;;;7.50;;
14125;SDS011;7141;49.484;11.242;2023-05-20T11:34:33;9.63;;;7.30;;
14125;SDS011;7141;49.484;11.242;2023-05-20T11:37:00;10.13;;;7.67;;
14125;SDS011;7141;49.484;11.242;2023-05-20T11:39:29;8.80;;;7.43;;
14125;SDS011;7141;49.484;11.242;2023-05-20T11:41:56;8.93;;;7.87;;
14125;SDS011;7141;49.484;11.242;2023-05-20T11:44:23;10.27;;;7.93;;
14125;SDS011;7141;49.484;11.242;2023-05-20T11:46:49;8.73;;;7.93;;
14125;SDS011;7141;49.484;11.242;2023-05-20T11:49:15;8.77;;;7.87;;
14125;SDS011;7141;49.484;11.242;2023-05-20T11:51:41;8.87;;;7.53;;
14125;SDS011;7141;49.484;11.242;2023-05-20T11:54:08;8.50;;;7.60;;
14125;SDS011;7141;49.484;11.242;2023-05-20T11:56:35;10.60;;;7.77;;
14125;SDS011;7141;49.484;11.242;2023-05-20T11:59:02;9.30;;;7.77;;
14125;SDS011;7141;49.484;11.242;2023-05-20T12:01:29;8.53;;;7.73;;
14125;SDS011;7141;49.484;11.242;2023-05-20T12:03:57;9.13;;;7.77;;
14125;SDS011;7141;49.484;11.242;2023-05-20T12:06:23;8.60;;;7.70;;
14125;SDS011;7141;49.484;11.242;2023-05-20T12:08:49;9.13;;;7.43;;
14125;SDS011;7141;49.484;11.242;2023-05-20T12:11:15;10.73;;;8.30;;
14125;SDS011;7141;49.484;11.242;2023-05-20T12:13:41;8.20;;;7.40;;
14125;SDS011;7141;49.484;11.242;2023-05-20T12:16:07;8.10;;;7.30;;
14125;SDS011;7141;49.484;11.242;2023-05-20T12:18:33;8.60;;;7.80;;
14125;SDS011;7141;49.484;11.242;2023-05-20T12:20:59;9.03;;;8.13;;
14125;SDS011;7141;49.484;11.242;2023-05-20T12:23:25;12.23;;;8.23;;
14125;SDS011;7141;49.484;11.242;2023-05-20T12:25:54;12.17;;;8.17;;
14125;SDS011;7141;49.484;11.242;2023-05-20T12:28:20;8.23;;;7.40;;
14125;SDS011;7141;49.484;11.242;2023-05-20T12:30:46;10.63;;;7.27;;
14125;SDS011;7141;49.484;11.242;2023-05-20T12:33:12;9.27;;;7.73;;
14125;SDS011;7141;49.484;11.242;2023-05-20T12:35:39;9.07;;;7.80;;
14125;SDS011;7141;49.484;11.242;2023-05-20T12:38:05;10.37;;;7.67;;
14125;SDS011;7141;49.484;11.242;2023-05-20T12:40:32;11.40;;;7.90;;
14125;SDS011;7141;49.484;11.242;2023-05-20T12:42:59;8.07;;;7.27;;
14125;SDS011;7141;49.484;11.242;2023-05-20T12:45:25;8.80;;;7.10;;
14125;SDS011;7141;49.484;11.242;2023-05-20T12:47:51;8.63;;;7.83;;
14125;SDS011;7141;49.484;11.242;2023-05-20T12:50:17;8.60;;;7.77;;
14125;SDS011;7141;49.484;11.242;2023-05-20T12:52:43;7.73;;;6.90;;
14125;SDS011;7141;49.484;11.242;2023-05-20T12:55:09;7.97;;;7.17;;
14125;SDS011;7141;49.484;11.242;2023-05-20T12:57:39;9.33;;;7.67;;
14125;SDS011;7141;49.484;11.242;2023-05-20T13:00:05;10.93;;;7.10;;
14125;SDS011;7141;49.484;11.242;2023-05-20T13:02:32;10.80;;;7.30;;
14125;SDS011;7141;49.484;11.242;2023-05-20T13:04:58;8.60;;;7.40;;
14125;SDS011;7141;49.484;11.242;2023-05-20T13:07:24;7.77;;;7.07;;
14125;SDS011;7141;49.484;11.242;2023-05-20T13:09:51;7.67;;;6.93;;
14125;SDS011;7141;49.484;11.242;2023-05-20T13:12:17;8.27;;;7.10;;
14125;SDS011;7141;49.484;11.242;2023-05-20T13:14:43;9.47;;;7.13;;
14125;SDS011;7141;49.484;11.242;2023-05-20T13:17:10;7.60;;;6.80;;
14125;SDS011;7141;49.484;11.242;2023-05-20T13:19:36;7.90;;;6.90;;
14125;SDS011;7141;49.484;11.242;2023-05-20T13:22:03;7.43;;;6.73;;
14125;SDS011;7141;49.484;11.242;2023-05-20T13:24:30;7.23;;;6.53;;
14125;SDS011;7141;49.484;11.242;2023-05-20T13:26:56;8.43;;;6.63;;
14125;SDS011;7141;49.484;11.242;2023-05-20T13:29:22;7.90;;;6.30;;
14125;SDS011;7141;49.484;11.242;2023-05-20T13:31:48;10.23;;;6.80;;
14125;SDS011;7141;49.484;11.242;2023-05-20T13:34:14;8.33;;;6.83;;
14125;SDS011;7141;49.484;11.242;2023-05-20T13:36:40;8.17;;;6.37;;
14125;SDS011;7141;49.484;11.242;2023-05-20T13:39:06;10.80;;;6.80;;
14125;SDS011;7141;49.484;11.242;2023-05-20T13:41:32;9.20;;;7.03;;
14125;SDS011;7141;49.484;11.242;2023-05-20T13:43:58;8.00;;;6.37;;
14125;SDS011;7141;49.484;11.242;2023-05-20T13:46:24;7.57;;;6.43;;
14125;SDS011;7141;49.484;11.242;2023-05-20T13:48:50;7.07;;;6.47;;
14125;SDS011;7141;49.484;11.242;2023-05-20T13:51:16;7.17;;;6.47;;
14125;SDS011;7141;49.484;11.242;2023-05-20T13:53:42;7.97;;;6.07;;
14125;SDS011;7141;49.484;11.242;2023-05-20T13:56:08;8.17;;;6.50;;
14125;SDS011;7141;49.484;11.242;2023-05-20T13:58:35;6.70;;;6.10;;
14125;SDS011;7141;49.484;11.242;2023-05-20T14:01:01;7.23;;;6.53;;
14125;SDS011;7141;49.484;11.242;2023-05-20T14:03:31;8.40;;;6.37;;
14125;SDS011;7141;49.484;11.242;2023-05-20T14:05:58;6.73;;;6.13;;
14125;SDS011;7141;49.484;11.242;2023-05-20T14:08:24;7.37;;;5.80;;
14125;SDS011;7141;49.484;11.242;2023-05-20T14:10:50;6.93;;;6.23;;
14125;SDS011;7141;49.484;11.242;2023-05-20T14:13:22;7.30;;;6.60;;
14125;SDS011;7141;49.484;11.242;2023-05-20T14:15:49;10.73;;;6.20;;
14125;SDS011;7141;49.484;11.242;2023-05-20T14:18:15;8.17;;;6.00;;
14125;SDS011;7141;49.484;11.242;2023-05-20T14:20:41;6.90;;;5.80;;
14125;SDS011;7141;49.484;11.242;2023-05-20T14:23:07;7.65;;;5.80;;
14125;SDS011;7141;49.484;11.242;2023-05-20T14:25:33;6.82;;;6.15;;
14125;SDS011;7141;49.484;11.242;2023-05-20T14:27:59;6.85;;;5.75;;
14125;SDS011;7141;49.484;11.242;2023-05-20T14:30:25;7.68;;;5.72;;
14125;SDS011;7141;49.484;11.242;2023-05-20T14:32:51;6.45;;;5.85;;
14125;SDS011;7141;49.484;11.242;2023-05-20T14:35:17;6.75;;;5.75;;
14125;SDS011;7141;49.484;11.242;2023-05-20T14:37:43;6.18;;;5.57;;
14125;SDS011;7141;49.484;11.242;2023-05-20T14:40:09;7.43;;;6.07;;
14125;SDS011;7141;49.484;11.242;2023-05-20T14:42:35;7.50;;;6.80;;
14125;SDS011;7141;49.484;11.242;2023-05-20T14:45:02;8.80;;;6.53;;
14125;SDS011;7141;49.484;11.242;2023-05-20T14:47:28;9.43;;;6.33;;